Time;durP1;ratioP1;P1;durP2;ratioP2;P2;SDS_P1;SDS_P2;PMS_P1;PMS_P2;Temp;Humidity;BMP_temperature;BMP_pressure;BME280_temperature;BME280_humidity;BME280_pressure;Samples;Min_cycle;Max_cycle;Signal;HPM_P1;HPM_P2
2023/06/06 00:00:10;;;;;;;5.43;3.73;;;13.90;99.90;;;;;;5120111;28;20253;-79
2023/06/06 00:02:42;;;;;;;6.73;3.23;;;13.90;99.90;;;;;;5119701;28;20220;-78
2023/06/06 00:05:11;;;;;;;4.87;3.17;;;13.70;99.90;;;;;;5120000;28;20201;-78
2023/06/06 00:07:40;;;;;;;4.00;3.20;;;13.60;99.90;;;;;;5119331;28;20225;-77
2023/06/06 00:10:08;;;;;;;4.63;3.20;;;13.70;99.90;;;;;;5119157;28;20245;-77
2023/06/06 00:12:35;;;;;;;7.67;3.73;;;13.80;99.90;;;;;;5119282;28;20231;-79
2023/06/06 00:15:03;;;;;;;5.87;3.67;;;13.80;99.90;;;;;;5119839;28;20209;-77
2023/06/06 00:17:30;;;;;;;6.13;3.90;;;13.80;99.90;;;;;;5119370;28;20236;-79
2023/06/06 00:19:58;;;;;;;5.43;3.40;;;13.60;99.90;;;;;;5119905;28;20201;-78
2023/06/06 00:22:25;;;;;;;6.03;3.93;;;13.70;99.90;;;;;;5119661;28;20208;-79
2023/06/06 00:24:54;;;;;;;6.33;3.80;;;13.70;99.90;;;;;;5119708;28;20719;-78
2023/06/06 00:27:21;;;;;;;5.63;4.03;;;13.70;99.90;;;;;;5119182;28;20657;-76
2023/06/06 00:29:48;;;;;;;4.50;3.53;;;13.60;99.90;;;;;;5119245;28;20201;-78
2023/06/06 00:32:15;;;;;;;6.17;3.93;;;13.40;99.90;;;;;;5118609;28;20211;-76
2023/06/06 00:34:41;;;;;;;5.37;3.80;;;13.40;99.90;;;;;;5118720;28;20568;-78
2023/06/06 00:37:10;;;;;;;6.20;3.87;;;13.30;99.90;;;;;;5119517;28;20211;-79
2023/06/06 00:39:36;;;;;;;7.37;4.03;;;13.30;99.90;;;;;;5119369;28;20211;-77
2023/06/06 00:42:03;;;;;;;6.37;4.00;;;13.30;99.90;;;;;;5118918;28;20296;-80
2023/06/06 00:44:30;;;;;;;5.33;3.90;;;13.40;99.90;;;;;;5118535;28;20225;-78
2023/06/06 00:46:57;;;;;;;8.10;3.93;;;13.30;99.90;;;;;;5119050;28;20200;-78
2023/06/06 00:49:25;;;;;;;5.90;4.10;;;13.30;99.90;;;;;;5118987;28;20205;-77
2023/06/06 00:51:52;;;;;;;5.43;3.97;;;13.30;99.90;;;;;;5117298;28;20308;-80
2023/06/06 00:54:20;;;;;;;7.53;4.17;;;13.30;99.90;;;;;;5117943;28;20653;-78
2023/06/06 00:56:50;;;;;;;8.33;3.90;;;13.20;99.90;;;;;;5117692;28;20204;-77
2023/06/06 00:59:19;;;;;;;6.10;3.70;;;13.10;99.90;;;;;;5118287;28;20189;-79
2023/06/06 01:01:47;;;;;;;6.77;4.33;;;13.00;99.90;;;;;;5117688;28;20211;-79
2023/06/06 01:04:15;;;;;;;7.13;3.93;;;13.00;99.90;;;;;;5112495;28;20228;-76
2023/06/06 01:06:43;;;;;;;7.83;4.20;;;12.90;99.90;;;;;;5118569;28;20207;-78
2023/06/06 01:09:11;;;;;;;4.60;4.00;;;13.00;99.90;;;;;;5118267;28;20231;-79
2023/06/06 01:11:51;;;;;;;6.03;4.20;;;13.00;99.90;;;;;;5118690;28;20205;-79
2023/06/06 01:14:24;;;;;;;7.90;4.43;;;13.00;99.90;;;;;;5111390;28;20220;-79
2023/06/06 01:16:53;;;;;;;5.90;4.13;;;13.10;99.90;;;;;;5118919;28;20207;-79
2023/06/06 01:19:27;;;;;;;4.87;3.60;;;13.10;99.90;;;;;;5118602;28;20205;-79
2023/06/06 01:21:56;;;;;;;7.43;4.50;;;12.90;99.90;;;;;;5118467;28;20695;-79
2023/06/06 01:24:24;;;;;;;5.17;4.23;;;13.00;99.90;;;;;;5118800;28;20223;-77
2023/06/06 01:26:51;;;;;;;6.50;4.40;;;12.90;99.90;;;;;;5118934;28;20209;-79
2023/06/06 01:29:18;;;;;;;6.83;3.97;;;12.90;99.90;;;;;;5118432;28;20213;-79
2023/06/06 01:31:52;;;;;;;6.07;4.27;;;12.80;99.90;;;;;;5118297;28;20201;-80
2023/06/06 01:34:31;;;;;;;6.03;4.33;;;12.70;99.90;;;;;;5115341;28;20220;-78
2023/06/06 01:37:05;;;;;;;5.97;4.57;;;12.60;99.90;;;;;;5116787;28;20204;-77
2023/06/06 01:39:36;;;;;;;8.73;4.40;;;12.70;99.90;;;;;;5117832;28;20208;-77
2023/06/06 01:42:03;;;;;;;8.13;5.03;;;12.60;99.90;;;;;;5117537;28;20201;-79
2023/06/06 01:44:32;;;;;;;6.80;4.70;;;12.70;99.90;;;;;;5115223;28;20229;-78
2023/06/06 01:47:03;;;;;;;9.60;4.77;;;12.60;99.90;;;;;;5118096;28;20193;-79
2023/06/06 01:49:30;;;;;;;6.60;4.70;;;12.60;99.90;;;;;;5117885;28;20490;-80
2023/06/06 01:51:58;;;;;;;6.07;4.20;;;12.60;99.90;;;;;;5117438;28;20212;-80
2023/06/06 01:54:26;;;;;;;9.60;5.00;;;12.50;99.90;;;;;;5116589;28;20221;-79
2023/06/06 01:56:53;;;;;;;8.80;4.37;;;12.40;99.90;;;;;;5117673;28;20201;-79
2023/06/06 01:59:20;;;;;;;7.43;4.40;;;12.30;99.90;;;;;;5117514;28;20200;-79
2023/06/06 02:01:46;;;;;;;5.90;4.33;;;12.40;99.90;;;;;;5117613;28;20205;-76
2023/06/06 02:04:13;;;;;;;6.63;4.80;;;12.30;99.90;;;;;;5116431;28;20249;-77
2023/06/06 02:06:40;;;;;;;7.00;4.50;;;12.50;99.90;;;;;;5117687;28;20201;-79
2023/06/06 02:09:10;;;;;;;6.10;4.30;;;12.50;99.90;;;;;;5117031;28;20614;-78
2023/06/06 02:11:37;;;;;;;8.00;4.53;;;12.40;99.90;;;;;;5116258;28;20212;-79
2023/06/06 02:14:04;;;;;;;7.80;4.33;;;12.50;99.90;;;;;;5116204;28;20221;-78
2023/06/06 02:16:31;;;;;;;6.20;4.40;;;12.50;99.90;;;;;;5116955;28;20524;-79
2023/06/06 02:18:58;;;;;;;7.40;4.27;;;12.40;99.90;;;;;;5116423;28;20737;-80
2023/06/06 02:21:25;;;;;;;7.03;4.90;;;12.20;99.90;;;;;;5116514;28;20209;-79
2023/06/06 02:23:52;;;;;;;6.93;4.77;;;12.20;99.90;;;;;;5116783;28;20704;-77
2023/06/06 02:26:21;;;;;;;8.30;4.90;;;12.30;99.90;;;;;;5117207;28;20562;-79
2023/06/06 02:28:48;;;;;;;7.03;4.53;;;12.40;99.90;;;;;;5117531;28;20741;-77
2023/06/06 02:31:16;;;;;;;8.47;4.33;;;12.30;99.90;;;;;;5116749;28;20205;-77
2023/06/06 02:33:43;;;;;;;9.37;5.10;;;12.40;99.90;;;;;;5116145;28;20791;-76
2023/06/06 02:36:10;;;;;;;5.50;4.10;;;12.50;99.90;;;;;;5117067;28;20648;-76
2023/06/06 02:38:37;;;;;;;7.30;4.70;;;12.30;99.90;;;;;;5116733;28;20189;-80
2023/06/06 02:41:04;;;;;;;6.97;4.80;;;12.30;99.90;;;;;;5117095;28;20208;-78
2023/06/06 02:43:32;;;;;;;10.53;5.30;;;12.10;99.90;;;;;;5116791;28;20220;-79
2023/06/06 02:45:59;;;;;;;7.23;4.53;;;12.00;99.90;;;;;;5116397;28;20200;-80
2023/06/06 02:48:26;;;;;;;5.47;4.33;;;12.20;99.90;;;;;;5115746;28;20582;-77
2023/06/06 02:50:53;;;;;;;8.43;4.30;;;12.10;99.90;;;;;;5116176;28;20580;-78
2023/06/06 02:53:21;;;;;;;8.10;4.90;;;12.20;99.90;;;;;;5116276;28;20225;-79
2023/06/06 02:55:48;;;;;;;8.83;4.97;;;12.10;99.90;;;;;;5115698;28;20207;-79
2023/06/06 02:58:34;;;;;;;6.20;4.87;;;12.10;99.90;;;;;;5115863;28;20207;-77
2023/06/06 03:01:03;;;;;;;8.10;4.53;;;11.80;99.90;;;;;;5115822;28;20208;-76
2023/06/06 03:03:30;;;;;;;6.90;5.00;;;11.90;99.90;;;;;;5115552;28;20225;-78
2023/06/06 03:05:57;;;;;;;8.07;5.20;;;12.10;99.90;;;;;;5115120;28;20535;-79
2023/06/06 03:08:25;;;;;;;8.27;5.07;;;12.20;99.90;;;;;;5114524;28;20256;-77
2023/06/06 03:10:53;;;;;;;8.80;5.37;;;12.00;99.90;;;;;;5114603;28;20635;-77
2023/06/06 03:13:20;;;;;;;6.53;4.80;;;11.90;99.90;;;;;;5114458;28;20221;-78
2023/06/06 03:15:48;;;;;;;8.13;5.00;;;12.10;99.90;;;;;;5115534;28;20414;-79
2023/06/06 03:18:16;;;;;;;7.50;4.93;;;12.10;99.90;;;;;;5115524;28;20336;-78
2023/06/06 03:20:45;;;;;;;8.87;5.50;;;12.00;99.90;;;;;;5115672;28;20200;-76
2023/06/06 03:23:12;;;;;;;6.73;4.83;;;11.80;99.90;;;;;;5116154;28;20216;-78
2023/06/06 03:25:41;;;;;;;7.60;4.80;;;11.90;99.90;;;;;;5115883;28;20287;-77
2023/06/06 03:28:08;;;;;;;7.53;5.10;;;11.90;99.90;;;;;;5115804;28;20228;-76
2023/06/06 03:30:34;;;;;;;7.83;4.70;;;11.90;99.90;;;;;;5116625;28;20197;-78
2023/06/06 03:33:03;;;;;;;8.93;5.40;;;11.90;99.90;;;;;;5115999;28;20229;-79
2023/06/06 03:35:32;;;;;;;7.00;5.13;;;12.00;99.90;;;;;;5114796;28;20254;-79
2023/06/06 03:37:59;;;;;;;9.50;4.90;;;11.90;99.90;;;;;;5115637;28;20565;-77
2023/06/06 03:40:25;;;;;;;6.77;4.80;;;11.80;99.90;;;;;;5115144;28;20577;-78
2023/06/06 03:42:53;;;;;;;9.73;4.97;;;11.90;99.90;;;;;;5115767;28;20635;-77
2023/06/06 03:45:21;;;;;;;9.37;5.17;;;11.90;99.90;;;;;;5115508;28;20196;-79
2023/06/06 03:47:48;;;;;;;9.03;5.10;;;12.00;99.90;;;;;;5114470;28;20651;-79
2023/06/06 03:50:17;;;;;;;8.70;5.00;;;11.90;99.90;;;;;;5115063;28;20230;-77
2023/06/06 03:52:44;;;;;;;9.13;4.77;;;12.00;99.90;;;;;;5115019;28;20224;-78
2023/06/06 03:55:11;;;;;;;10.57;5.20;;;11.90;99.90;;;;;;5115073;28;20196;-77
2023/06/06 03:57:38;;;;;;;10.00;5.23;;;12.00;99.90;;;;;;5115019;28;20204;-78
2023/06/06 04:00:10;;;;;;;10.93;5.30;;;12.00;99.90;;;;;;5114376;28;20559;-77
2023/06/06 04:02:37;;;;;;;10.13;5.33;;;11.90;99.90;;;;;;5115477;28;20304;-78
2023/06/06 04:05:05;;;;;;;8.10;5.07;;;11.90;99.90;;;;;;5115353;28;20234;-79
2023/06/06 04:07:33;;;;;;;9.40;4.83;;;11.90;99.90;;;;;;5115805;28;20201;-78
2023/06/06 04:10:01;;;;;;;7.73;5.03;;;11.80;99.90;;;;;;5115049;28;20224;-79
2023/06/06 04:12:27;;;;;;;7.20;4.70;;;11.80;99.90;;;;;;5115329;28;20197;-79
2023/06/06 04:14:54;;;;;;;10.77;5.40;;;12.10;99.90;;;;;;5115291;28;20230;-77
2023/06/06 04:17:22;;;;;;;9.10;5.67;;;12.10;99.90;;;;;;5114974;28;20240;-78
2023/06/06 04:19:49;;;;;;;6.50;5.00;;;12.20;99.90;;;;;;5114726;28;20204;-78
2023/06/06 04:22:16;;;;;;;8.53;5.20;;;12.10;99.90;;;;;;5115120;28;20284;-78
2023/06/06 04:24:46;;;;;;;8.70;5.10;;;12.10;99.90;;;;;;5113632;28;20704;-79
2023/06/06 04:27:13;;;;;;;10.13;5.57;;;12.20;99.90;;;;;;5116341;28;20197;-76
2023/06/06 04:29:41;;;;;;;10.93;5.40;;;12.20;99.90;;;;;;5117530;28;20231;-77
2023/06/06 04:32:08;;;;;;;8.80;5.83;;;12.20;99.90;;;;;;5118707;28;20201;-77
2023/06/06 04:34:36;;;;;;;10.07;5.57;;;12.20;99.90;;;;;;5117998;28;20221;-79
2023/06/06 04:37:03;;;;;;;7.97;4.93;;;12.10;99.90;;;;;;5118273;28;20196;-78
2023/06/06 04:39:32;;;;;;;10.47;5.40;;;12.30;99.90;;;;;;5119346;28;20209;-78
2023/06/06 04:42:01;;;;;;;8.73;5.33;;;12.50;99.90;;;;;;5118065;28;20288;-79
2023/06/06 04:44:29;;;;;;;9.43;5.87;;;12.60;99.90;;;;;;5118151;28;20228;-79
2023/06/06 04:47:00;;;;;;;8.23;5.90;;;12.60;99.90;;;;;;5118228;28;20201;-75
2023/06/06 04:49:27;;;;;;;8.27;5.67;;;12.50;99.90;;;;;;5118048;28;20216;-79
2023/06/06 04:51:59;;;;;;;10.00;5.87;;;12.60;99.90;;;;;;5117459;28;20208;-79
2023/06/06 04:54:26;;;;;;;12.87;6.07;;;12.70;99.90;;;;;;5118238;28;20216;-78
2023/06/06 04:56:53;;;;;;;9.57;5.67;;;12.70;99.90;;;;;;5118541;28;20208;-78
2023/06/06 04:59:22;;;;;;;9.07;6.20;;;12.90;99.90;;;;;;5118751;28;20193;-79
2023/06/06 05:01:51;;;;;;;8.87;5.00;;;13.10;99.90;;;;;;5118782;28;20204;-77
2023/06/06 05:04:18;;;;;;;11.20;5.70;;;13.20;99.90;;;;;;5118453;28;20231;-79
2023/06/06 05:06:46;;;;;;;9.60;5.60;;;13.50;99.90;;;;;;5118546;28;20205;-77
2023/06/06 05:09:13;;;;;;;8.07;5.73;;;13.70;99.90;;;;;;5118528;28;20250;-77
2023/06/06 05:11:45;;;;;;;10.23;5.80;;;14.00;99.90;;;;;;5118353;28;20197;-76
2023/06/06 05:14:12;;;;;;;10.70;6.13;;;14.30;99.90;;;;;;5117960;28;20224;-77
2023/06/06 05:16:41;;;;;;;7.40;5.57;;;14.40;99.90;;;;;;5117903;28;20209;-77
2023/06/06 05:19:07;;;;;;;12.93;5.33;;;14.70;99.90;;;;;;5117076;28;20653;-78
2023/06/06 05:21:34;;;;;;;9.83;5.60;;;14.80;99.90;;;;;;5114638;28;20205;-79
2023/06/06 05:24:01;;;;;;;9.77;5.90;;;14.70;99.90;;;;;;5116890;28;20224;-77
2023/06/06 05:26:30;;;;;;;10.00;6.17;;;14.80;99.90;;;;;;5112192;28;20216;-81
2023/06/06 05:28:57;;;;;;;9.67;6.53;;;15.20;99.90;;;;;;5117064;28;20225;-79
2023/06/06 05:31:24;;;;;;;9.60;5.93;;;15.40;99.90;;;;;;5116482;28;20680;-78
2023/06/06 05:33:52;;;;;;;8.77;6.10;;;15.60;99.90;;;;;;5116838;28;20227;-79
2023/06/06 05:36:19;;;;;;;10.25;6.22;;;15.80;99.90;;;;;;5116550;28;20258;-79
2023/06/06 05:38:46;;;;;;;10.15;5.25;;;15.90;99.90;;;;;;5115706;28;20201;-77
2023/06/06 05:41:12;;;;;;;7.25;4.97;;;16.50;99.90;;;;;;5115724;28;20567;-77
2023/06/06 05:43:39;;;;;;;6.15;4.30;;;16.50;99.90;;;;;;5117540;28;20329;-78
2023/06/06 05:46:06;;;;;;;10.00;4.95;;;16.50;99.90;;;;;;5109190;28;20223;-76
2023/06/06 05:48:33;;;;;;;8.48;4.80;;;16.70;99.90;;;;;;5117015;28;20197;-79
2023/06/06 05:51:01;;;;;;;7.80;4.60;;;17.00;99.90;;;;;;5118200;28;20201;-77
2023/06/06 05:53:28;;;;;;;7.68;4.85;;;16.80;99.90;;;;;;5117821;28;20225;-78
2023/06/06 05:55:55;;;;;;;6.53;4.28;;;16.80;99.90;;;;;;5118290;28;20649;-78
2023/06/06 05:58:22;;;;;;;7.43;4.70;;;16.60;99.90;;;;;;5117046;28;20304;-79
2023/06/06 06:00:49;;;;;;;7.85;4.75;;;16.40;99.90;;;;;;5117092;28;20230;-78
2023/06/06 06:03:16;;;;;;;8.60;5.25;;;16.20;99.90;;;;;;5116805;28;20233;-80
2023/06/06 06:05:43;;;;;;;6.47;4.32;;;16.10;99.90;;;;;;5115774;28;20189;-79
2023/06/06 06:08:12;;;;;;;9.27;4.07;;;16.40;99.90;;;;;;5117658;28;20710;-76
2023/06/06 06:10:39;;;;;;;7.70;5.00;;;16.40;99.90;;;;;;5116966;28;20229;-76
2023/06/06 06:13:06;;;;;;;9.98;5.07;;;16.50;99.90;;;;;;5116272;28;20761;-79
2023/06/06 06:15:35;;;;;;;5.88;4.60;;;16.30;99.90;;;;;;5116278;28;20204;-76
2023/06/06 06:18:03;;;;;;;7.78;4.97;;;16.50;99.90;;;;;;5116170;28;20571;-78
2023/06/06 06:20:30;;;;;;;6.85;4.85;;;16.60;99.90;;;;;;5116320;28;20208;-79
2023/06/06 06:22:57;;;;;;;8.77;4.82;;;16.60;99.90;;;;;;5115772;28;20224;-76
2023/06/06 06:25:25;;;;;;;6.15;4.60;;;16.80;99.90;;;;;;5115828;28;20200;-76
2023/06/06 06:27:52;;;;;;;7.82;4.97;;;16.70;99.90;;;;;;5115791;28;20570;-78
2023/06/06 06:30:19;;;;;;;7.97;4.20;;;16.80;99.90;;;;;;5115830;28;20593;-79
2023/06/06 06:32:46;;;;;;;5.00;4.15;;;16.70;99.90;;;;;;5115796;28;20221;-78
2023/06/06 06:35:13;;;;;;;6.50;4.30;;;16.70;99.90;;;;;;5115239;28;20565;-79
2023/06/06 06:37:40;;;;;;;5.82;4.18;;;16.70;99.90;;;;;;5115555;28;20207;-77
2023/06/06 06:40:09;;;;;;;5.20;4.13;;;16.70;99.90;;;;;;5117172;28;20243;-80
2023/06/06 06:42:40;;;;;;;7.47;4.25;;;16.80;99.90;;;;;;5116941;28;20225;-77
2023/06/06 06:45:09;;;;;;;7.25;4.40;;;16.80;99.90;;;;;;5116539;28;20580;-79
2023/06/06 06:47:36;;;;;;;10.45;4.60;;;16.40;99.90;;;;;;5117335;28;20205;-79
2023/06/06 06:50:04;;;;;;;4.95;3.95;;;16.40;99.90;;;;;;5116470;28;20227;-79
2023/06/06 06:52:33;;;;;;;7.57;4.53;;;16.50;99.90;;;;;;5116090;28;20213;-78
2023/06/06 06:55:01;;;;;;;6.90;4.30;;;16.60;99.90;;;;;;5116146;28;20236;-79
2023/06/06 06:57:28;;;;;;;9.45;4.38;;;16.80;99.90;;;;;;5116506;28;20240;-78
2023/06/06 06:59:57;;;;;;;7.75;4.63;;;16.70;99.90;;;;;;5115967;28;20296;-77
2023/06/06 07:02:26;;;;;;;7.95;4.55;;;16.90;99.90;;;;;;5116432;28;20611;-79
2023/06/06 07:04:53;;;;;;;8.68;4.70;;;17.10;99.90;;;;;;5115808;28;20228;-78
2023/06/06 07:07:20;;;;;;;8.80;4.80;;;17.20;99.90;;;;;;5116006;28;20201;-79
2023/06/06 07:09:47;;;;;;;8.18;4.45;;;17.40;99.90;;;;;;5115686;28;20583;-79
2023/06/06 07:12:14;;;;;;;9.05;4.78;;;17.10;99.90;;;;;;5115912;28;20234;-79
2023/06/06 07:14:41;;;;;;;8.30;5.05;;;17.00;99.90;;;;;;5115750;28;20205;-79
2023/06/06 07:17:09;;;;;;;6.60;4.75;;;17.00;99.90;;;;;;5116150;28;20197;-78
2023/06/06 07:19:36;;;;;;;6.63;4.20;;;16.90;99.90;;;;;;5116208;28;20200;-78
2023/06/06 07:22:04;;;;;;;6.38;4.00;;;17.00;99.90;;;;;;5115298;28;20200;-77
2023/06/06 07:24:30;;;;;;;7.40;4.13;;;16.90;99.90;;;;;;5115197;28;20221;-78
2023/06/06 07:26:58;;;;;;;6.53;4.45;;;16.90;99.90;;;;;;5115723;28;20208;-78
2023/06/06 07:29:26;;;;;;;14.48;4.90;;;16.90;99.90;;;;;;5115761;28;20304;-77
2023/06/06 07:31:53;;;;;;;5.55;4.15;;;17.10;99.90;;;;;;5115976;28;20208;-78
2023/06/06 07:34:21;;;;;;;6.65;4.07;;;17.20;99.90;;;;;;5115125;28;20691;-77
2023/06/06 07:36:48;;;;;;;9.40;4.35;;;17.10;99.90;;;;;;5115189;28;20307;-76
2023/06/06 07:39:15;;;;;;;11.40;4.25;;;17.40;99.90;;;;;;5115335;28;20641;-79
2023/06/06 07:41:42;;;;;;;13.98;5.40;;;17.30;99.90;;;;;;5115064;28;20836;-79
2023/06/06 07:44:09;;;;;;;6.15;4.20;;;17.40;99.90;;;;;;5114421;28;20653;-78
2023/06/06 07:46:36;;;;;;;7.88;4.03;;;17.30;99.90;;;;;;5114860;28;20688;-79
2023/06/06 07:49:03;;;;;;;7.65;4.20;;;17.40;99.90;;;;;;5116119;28;20653;-77
2023/06/06 07:51:31;;;;;;;5.95;4.22;;;17.50;99.90;;;;;;5114397;28;20220;-78
2023/06/06 07:53:58;;;;;;;8.32;4.30;;;17.90;99.90;;;;;;5114434;28;20787;-78
2023/06/06 07:56:24;;;;;;;8.00;4.40;;;18.00;99.90;;;;;;5115094;28;20689;-78
2023/06/06 07:58:53;;;;;;;15.40;5.40;;;18.00;99.90;;;;;;5115154;28;20205;-76
2023/06/06 08:01:21;;;;;;;7.78;4.18;;;18.00;99.90;;;;;;5115657;28;20232;-77
2023/06/06 08:03:50;;;;;;;7.68;4.35;;;17.80;99.90;;;;;;5119717;28;20565;-77
2023/06/06 08:06:17;;;;;;;8.30;4.65;;;17.70;99.90;;;;;;5119595;28;20575;-77
2023/06/06 08:08:48;;;;;;;9.32;4.15;;;18.00;99.90;;;;;;5119048;28;20332;-77
2023/06/06 08:11:15;;;;;;;8.70;4.28;;;18.20;99.90;;;;;;5119387;28;20235;-77
2023/06/06 08:13:42;;;;;;;9.18;4.25;;;17.90;99.90;;;;;;5118194;28;20217;-77
2023/06/06 08:16:09;;;;;;;7.95;4.10;;;18.00;99.90;;;;;;5119380;28;20605;-79
2023/06/06 08:18:36;;;;;;;10.93;5.53;;;18.20;99.90;;;;;;5119351;28;20490;-78
2023/06/06 08:21:03;;;;;;;7.70;4.30;;;18.40;99.90;;;;;;5119589;28;20204;-78
2023/06/06 08:23:30;;;;;;;7.30;4.28;;;18.40;99.90;;;;;;5119576;28;20232;-78
2023/06/06 08:25:58;;;;;;;8.02;4.60;;;18.70;99.90;;;;;;5119327;28;20288;-77
2023/06/06 08:28:25;;;;;;;8.30;5.05;;;18.50;99.90;;;;;;5119569;28;20211;-78
2023/06/06 08:30:52;;;;;;;5.30;4.43;;;18.60;99.90;;;;;;5119203;28;20308;-77
2023/06/06 08:33:20;;;;;;;6.65;4.45;;;18.70;99.90;;;;;;5119550;28;20292;-80
2023/06/06 08:35:47;;;;;;;14.25;4.50;;;18.60;99.90;;;;;;5119147;28;20203;-77
2023/06/06 08:38:15;;;;;;;9.55;4.30;;;18.80;99.90;;;;;;5121159;28;20205;-78
2023/06/06 08:40:42;;;;;;;8.38;4.80;;;18.80;99.90;;;;;;5120058;28;20193;-77
2023/06/06 08:43:12;;;;;;;8.70;4.32;;;19.00;99.90;;;;;;5120736;28;20243;-78
2023/06/06 08:45:42;;;;;;;6.38;4.25;;;19.00;99.90;;;;;;5120119;28;20205;-77
2023/06/06 08:48:11;;;;;;;7.30;4.68;;;19.00;99.90;;;;;;5119943;28;20215;-78
2023/06/06 08:50:39;;;;;;;6.20;4.10;;;19.10;99.90;;;;;;5120145;28;20232;-78
2023/06/06 08:53:06;;;;;;;6.35;4.15;;;19.00;99.90;;;;;;5121118;28;20235;-77
2023/06/06 08:55:35;;;;;;;7.25;4.40;;;19.00;99.90;;;;;;5120046;28;20315;-78
2023/06/06 08:58:03;;;;;;;7.70;4.25;;;19.10;99.90;;;;;;5120891;28;20197;-77
2023/06/06 09:00:31;;;;;;;9.27;4.22;;;19.30;99.90;;;;;;5119736;28;20200;-77
2023/06/06 09:02:59;;;;;;;7.03;4.57;;;19.50;83.20;;;;;;5119010;28;20308;-76
2023/06/06 09:05:26;;;;;;;8.00;4.13;;;19.50;99.90;;;;;;5121027;28;20722;-76
2023/06/06 09:07:54;;;;;;;4.70;4.20;;;19.60;99.90;;;;;;5119672;28;20570;-76
2023/06/06 09:10:21;;;;;;;6.90;4.53;;;19.80;1.00;;;;;;5119799;28;20216;-77
2023/06/06 09:12:48;;;;;;;9.57;4.90;;;19.60;1.00;;;;;;5118322;28;20236;-77
2023/06/06 09:15:16;;;;;;;7.68;4.53;;;19.60;1.00;;;;;;5118943;28;20661;-77
2023/06/06 09:17:45;;;;;;;6.60;4.22;;;19.60;1.00;;;;;;5119760;28;20657;-77
2023/06/06 09:20:14;;;;;;;7.53;3.90;;;19.80;1.00;;;;;;5119935;28;20254;-77
2023/06/06 09:22:42;;;;;;;8.07;4.50;;;19.90;1.00;;;;;;5120347;28;20228;-77
2023/06/06 09:25:17;;;;;;;10.80;5.25;;;20.00;1.00;;;;;;5119940;28;20679;-77
2023/06/06 09:27:44;;;;;;;7.00;4.22;;;19.80;99.90;;;;;;5119368;28;20197;-77
2023/06/06 09:30:20;;;;;;;6.82;4.40;;;19.80;1.00;;;;;;5120277;28;20221;-77
2023/06/06 09:32:52;;;;;;;6.45;4.03;;;20.10;99.90;;;;;;5120404;28;20224;-77
2023/06/06 09:35:19;;;;;;;10.13;4.68;;;20.50;1.00;;;;;;5120295;28;20649;-77
2023/06/06 09:37:46;;;;;;;8.07;4.63;;;20.60;99.90;;;;;;5117992;28;20197;-77
2023/06/06 09:40:14;;;;;;;9.10;4.82;;;20.60;1.00;;;;;;5114100;28;20199;-77
2023/06/06 09:42:43;;;;;;;8.60;4.90;;;20.80;1.00;;;;;;5119164;28;20304;-77
2023/06/06 09:45:15;;;;;;;5.55;4.65;;;20.70;1.00;;;;;;5111338;28;20209;-76
2023/06/06 09:47:42;;;;;;;7.13;4.05;;;20.50;1.00;;;;;;5118203;28;20227;-76
2023/06/06 09:50:12;;;;;;;7.93;4.53;;;20.70;1.00;;;;;;5114718;28;20227;-77
2023/06/06 09:52:39;;;;;;;8.82;4.22;;;20.80;99.90;;;;;;5120098;28;20319;-76
2023/06/06 09:55:10;;;;;;;9.48;4.45;;;21.30;1.00;;;;;;5120360;28;20651;-76
2023/06/06 09:57:39;;;;;;;6.80;4.18;;;20.80;1.00;;;;;;5118762;28;20227;-76
2023/06/06 10:00:09;;;;;;;11.60;4.50;;;20.70;1.00;;;;;;5119047;28;20287;-77
2023/06/06 10:02:43;;;;;;;10.75;4.63;;;21.20;99.90;;;;;;5120421;28;20225;-77
2023/06/06 10:05:13;;;;;;;9.23;4.28;;;21.50;1.00;;;;;;5120148;28;20288;-76
2023/06/06 10:07:41;;;;;;;10.00;4.32;;;21.20;1.00;;;;;;5120019;28;20212;-77
2023/06/06 10:10:12;;;;;;;6.47;4.32;;;21.00;1.00;;;;;;5119443;28;20213;-76
2023/06/06 10:12:40;;;;;;;5.75;3.72;;;21.30;1.00;;;;;;5120640;28;20236;-76
2023/06/06 10:15:09;;;;;;;5.70;4.15;;;21.00;99.90;;;;;;5119600;28;20214;-76
2023/06/06 10:17:37;;;;;;;6.18;4.18;;;20.80;1.00;;;;;;5120528;28;20205;-77
2023/06/06 10:20:06;;;;;;;6.93;4.75;;;20.90;99.90;;;;;;5119889;28;20212;-76
2023/06/06 10:22:35;;;;;;;6.78;3.90;;;21.00;1.00;;;;;;5119518;28;20215;-77
2023/06/06 10:25:03;;;;;;;6.97;4.30;;;21.10;1.00;;;;;;5119233;28;20215;-77
2023/06/06 10:27:41;;;;;;;12.48;4.70;;;21.10;99.90;;;;;;5119085;28;20208;-77
2023/06/06 10:30:13;;;;;;;5.85;3.70;;;21.40;1.00;;;;;;5118652;28;20207;-77
2023/06/06 10:32:48;;;;;;;11.25;4.82;;;21.10;1.00;;;;;;5118835;28;20595;-77
2023/06/06 10:35:16;;;;;;;7.45;3.65;;;21.10;1.00;;;;;;5118575;28;20201;-76
2023/06/06 10:38:03;;;;;;;9.30;4.80;;;21.30;22.30;;;;;;5118566;28;20232;-77
2023/06/06 10:40:41;;;;;;;7.65;3.95;;;21.20;1.00;;;;;;5118223;28;20214;-77
2023/06/06 10:43:09;;;;;;;6.35;4.10;;;21.10;1.00;;;;;;5118104;28;20231;-77
2023/06/06 10:45:43;;;;;;;6.60;4.15;;;21.10;99.90;;;;;;5114759;28;20240;-79
2023/06/06 10:48:10;;;;;;;5.35;3.80;;;21.20;1.00;;;;;;5116525;28;20204;-78
2023/06/06 10:50:38;;;;;;;8.63;4.32;;;21.30;1.00;;;;;;5114898;28;20258;-79
2023/06/06 10:53:17;;;;;;;6.55;4.07;;;21.30;1.00;;;;;;5114857;28;20679;-78
2023/06/06 10:55:46;;;;;;;8.05;3.90;;;21.50;99.90;;;;;;5114637;28;20226;-78
2023/06/06 10:58:27;;;;;;;6.32;4.50;;;21.70;99.90;;;;;;5114424;28;20582;-79
2023/06/06 11:00:59;;;;;;;5.88;3.78;;;21.80;99.90;;;;;;5114369;28;20200;-79
2023/06/06 11:03:34;;;;;;;5.85;4.05;;;21.80;1.00;;;;;;5114376;28;20232;-78
2023/06/06 11:06:16;;;;;;;7.60;3.88;;;21.40;99.90;;;;;;5114247;28;20204;-78
2023/06/06 11:08:53;;;;;;;7.57;3.85;;;21.90;1.00;;;;;;5114082;28;20204;-79
2023/06/06 11:11:22;;;;;;;7.93;4.65;;;22.20;78.80;;;;;;5114216;28;20242;-78
2023/06/06 11:13:54;;;;;;;6.10;3.85;;;22.30;1.00;;;;;;5114376;28;20231;-79
2023/06/06 11:16:59;;;;;;;7.60;4.15;;;22.50;1.00;;;;;;5114304;28;20201;-78
2023/06/06 11:19:37;;;;;;;8.23;4.07;;;22.50;99.90;;;;;;5114900;28;20746;-79
2023/06/06 11:22:04;;;;;;;8.55;4.10;;;22.00;1.00;;;;;;5114240;28;20250;-79
2023/06/06 11:24:35;;;;;;;7.47;4.30;;;21.90;99.90;;;;;;5113497;28;20239;-78
2023/06/06 11:27:03;;;;;;;6.15;4.22;;;21.70;1.00;;;;;;5114091;28;20205;-79
2023/06/06 11:29:31;;;;;;;7.93;4.28;;;21.70;1.00;;;;;;5113820;28;20253;-79
2023/06/06 11:31:59;;;;;;;8.75;4.38;;;21.70;1.00;;;;;;5114344;28;20216;-79
2023/06/06 11:34:25;;;;;;;7.20;4.25;;;21.70;1.00;;;;;;5113830;28;20220;-79
2023/06/06 11:36:53;;;;;;;6.15;4.43;;;21.50;1.00;;;;;;5113258;28;20661;-79
2023/06/06 11:39:21;;;;;;;5.85;4.00;;;21.40;1.00;;;;;;5113873;28;20400;-79
2023/06/06 11:41:50;;;;;;;6.88;4.22;;;21.40;99.90;;;;;;5113720;28;20553;-79
2023/06/06 11:44:18;;;;;;;8.20;4.68;;;21.50;1.00;;;;;;5106716;28;20263;-78
2023/06/06 11:46:50;;;;;;;4.93;4.10;;;21.60;99.90;;;;;;5112688;28;20197;-78
2023/06/06 11:49:17;;;;;;;6.47;4.32;;;21.60;1.00;;;;;;5113022;28;20665;-78
2023/06/06 11:51:44;;;;;;;12.52;4.65;;;21.60;1.00;;;;;;5110305;28;20240;-78
2023/06/06 11:54:12;;;;;;;11.38;4.55;;;21.70;99.90;;;;;;5113283;28;20693;-78
2023/06/06 11:56:40;;;;;;;6.60;4.15;;;21.70;99.90;;;;;;5114190;28;20197;-78
2023/06/06 11:59:09;;;;;;;6.05;4.20;;;21.60;99.90;;;;;;5114307;28;20426;-78
2023/06/06 12:01:36;;;;;;;7.53;4.30;;;21.80;1.00;;;;;;5113723;28;20193;-78
2023/06/06 12:04:06;;;;;;;6.20;4.38;;;21.90;1.00;;;;;;5113524;28;20217;-78
2023/06/06 12:06:35;;;;;;;6.57;4.57;;;21.80;1.00;;;;;;5114120;28;20205;-78
2023/06/06 12:09:03;;;;;;;7.47;4.35;;;22.10;1.00;;;;;;5113238;28;20283;-80
2023/06/06 12:11:31;;;;;;;7.63;4.35;;;22.30;65.90;;;;;;5112984;28;20259;-80
2023/06/06 12:13:58;;;;;;;7.25;4.35;;;22.30;99.90;;;;;;5112199;28;20584;-80
2023/06/06 12:16:29;;;;;;;6.53;4.35;;;22.50;99.90;;;;;;5113338;28;20197;-80
2023/06/06 12:18:56;;;;;;;5.80;4.43;;;22.20;1.00;;;;;;5112902;28;20219;-78
2023/06/06 12:21:23;;;;;;;6.00;4.35;;;22.40;1.00;;;;;;5113062;28;20197;-80
2023/06/06 12:23:50;;;;;;;6.72;4.00;;;22.30;1.00;;;;;;5113069;28;20224;-80
2023/06/06 12:26:18;;;;;;;6.50;4.60;;;22.60;99.90;;;;;;5113532;28;20272;-80
2023/06/06 12:28:56;;;;;;;6.80;4.63;;;22.20;1.00;;;;;;5113826;28;20201;-80
2023/06/06 12:31:23;;;;;;;5.40;4.10;;;22.20;99.90;;;;;;5113928;28;20217;-80
2023/06/06 12:33:52;;;;;;;8.73;4.65;;;22.50;1.00;;;;;;5113717;28;20632;-78
2023/06/06 12:36:21;;;;;;;5.20;4.18;;;22.50;1.00;;;;;;5113859;28;20207;-78
2023/06/06 12:39:01;;;;;;;7.25;4.60;;;22.20;88.80;;;;;;5113069;28;20636;-78
2023/06/06 12:41:39;;;;;;;5.68;4.40;;;22.20;1.00;;;;;;5113175;28;20197;-78
2023/06/06 12:44:08;;;;;;;7.38;4.53;;;22.20;1.00;;;;;;5112757;28;20220;-79
2023/06/06 12:46:35;;;;;;;6.38;4.97;;;22.40;99.90;;;;;;5113271;28;20213;-79
2023/06/06 12:49:05;;;;;;;7.97;5.03;;;22.40;7.90;;;;;;5115635;28;20204;-78
2023/06/06 12:51:32;;;;;;;6.68;5.28;;;22.20;99.90;;;;;;5115513;28;20334;-79
2023/06/06 12:53:59;;;;;;;8.60;5.07;;;22.20;99.90;;;;;;5115805;28;20217;-79